createdAt,value
2018-02-13T00:02:04.173Z,98526.66
2018-02-13T00:04:31.755Z,98537.59
2018-02-13T00:07:00.126Z,98538.02
2018-02-13T00:09:27.710Z,98541.74
2018-02-13T00:11:55.279Z,98537.95
2018-02-13T00:14:22.954Z,98541.68
2018-02-13T00:16:50.527Z,98544.63
2018-02-13T00:19:18.109Z,98543.66
2018-02-13T00:21:45.737Z,98546.95
2018-02-13T00:24:13.295Z,98539.80
2018-02-13T00:26:40.868Z,98536.84
2018-02-13T00:29:08.492Z,98541.84
2018-02-13T00:31:36.083Z,98551.38
2018-02-13T00:34:03.669Z,98547.90
2018-02-13T00:36:31.308Z,98543.56
2018-02-13T00:38:58.914Z,98544.39
2018-02-13T00:41:26.478Z,98543.63
2018-02-13T00:43:54.119Z,98538.39
2018-02-13T00:46:21.690Z,98545.15
2018-02-13T00:48:49.260Z,98541.66
2018-02-13T00:51:16.867Z,98542.66
2018-02-13T00:53:44.428Z,98548.36
2018-02-13T00:56:12.063Z,98538.33
2018-02-13T00:58:39.744Z,98539.02
2018-02-13T01:01:07.318Z,98538.45
2018-02-13T01:03:34.907Z,98541.02
2018-02-13T01:06:02.610Z,98541.66
2018-02-13T01:08:30.335Z,98539.81
2018-02-13T01:10:58.799Z,98545.36
2018-02-13T01:13:26.625Z,98552.39
2018-02-13T01:15:54.264Z,98551.39
2018-02-13T01:18:21.858Z,98548.45
2018-02-13T01:20:49.545Z,98545.81
2018-02-13T01:23:17.124Z,98543.87
2018-02-13T01:25:44.707Z,98546.82
2018-02-13T01:28:12.348Z,98540.31
2018-02-13T01:30:39.929Z,98536.80
2018-02-13T01:33:07.493Z,98535.59
2018-02-13T01:35:35.119Z,98541.18
2018-02-13T01:38:02.775Z,98535.91
2018-02-13T01:40:30.362Z,98540.17
2018-02-13T01:42:58.664Z,98538.75
2018-02-13T01:45:26.246Z,98540.41
2018-02-13T01:47:54.160Z,98535.95
2018-02-13T01:50:25.762Z,98543.84
2018-02-13T01:52:53.419Z,98549.48
2018-02-13T01:55:21.024Z,98536.02
2018-02-13T01:57:48.689Z,98548.16
2018-02-13T02:00:16.317Z,98549.52
2018-02-13T02:02:43.911Z,98544.51
2018-02-13T02:05:11.608Z,98547.80
2018-02-13T02:07:39.208Z,98549.88
2018-02-13T02:10:06.888Z,98550.25
2018-02-13T02:12:34.525Z,98556.43
2018-02-13T02:15:02.088Z,98549.12
2018-02-13T02:17:29.661Z,98560.20
2018-02-13T02:19:57.321Z,98556.20
2018-02-13T02:22:25.492Z,98554.45
2018-02-13T02:24:53.469Z,98550.09
2018-02-13T02:27:21.092Z,98555.53
2018-02-13T02:29:48.944Z,98557.12
2018-02-13T02:32:16.498Z,98565.47
2018-02-13T02:34:44.136Z,98557.91
2018-02-13T02:37:11.696Z,98562.48
2018-02-13T02:39:39.275Z,98556.95
2018-02-13T02:42:06.984Z,98553.95
2018-02-13T02:44:34.553Z,98555.13
2018-02-13T02:47:02.171Z,98550.91
2018-02-13T02:49:29.800Z,98556.90
2018-02-13T02:51:57.388Z,98557.52
2018-02-13T02:54:25.035Z,98558.42
2018-02-13T02:56:52.654Z,98559.46
2018-02-13T02:59:20.216Z,98558.16
2018-02-13T03:01:47.864Z,98562.36
2018-02-13T03:04:15.502Z,98563.35
2018-02-13T03:06:43.093Z,98561.70
2018-02-13T03:09:11.271Z,98561.70
2018-02-13T03:11:39.016Z,98563.77
2018-02-13T03:14:07.281Z,98565.14
2018-02-13T03:16:34.848Z,98565.94
2018-02-13T03:19:02.474Z,98566.84
2018-02-13T03:21:30.129Z,98575.18
2018-02-13T03:23:57.728Z,98580.18
2018-02-13T03:26:25.363Z,98585.86
2018-02-13T03:28:52.925Z,98584.23
2018-02-13T03:31:20.588Z,98581.34
2018-02-13T03:33:48.213Z,98581.08
2018-02-13T03:36:15.796Z,98581.05
2018-02-13T03:38:43.973Z,98593.34
2018-02-13T03:41:11.702Z,98585.21
2018-02-13T03:43:39.346Z,98591.05
2018-02-13T03:46:06.918Z,98586.48
2018-02-13T03:48:34.554Z,98590.29
2018-02-13T03:51:02.125Z,98594.09
2018-02-13T03:53:29.722Z,98591.43
2018-02-13T03:55:57.344Z,98594.81
2018-02-13T03:58:24.928Z,98594.51
2018-02-13T04:00:53.059Z,98591.28
2018-02-13T04:03:20.740Z,98592.08
2018-02-13T04:05:48.304Z,98591.94
2018-02-13T04:08:15.873Z,98577.48
2018-02-13T04:10:43.916Z,98584.58
2018-02-13T04:13:11.582Z,98585.34
2018-02-13T04:15:42.629Z,98579.79
2018-02-13T04:18:10.268Z,98586.98
2018-02-13T04:20:37.834Z,98591.78
2018-02-13T04:23:05.432Z,98593.11
2018-02-13T04:25:33.064Z,98597.38
2018-02-13T04:28:00.720Z,98594.72
2018-02-13T04:30:28.361Z,98603.98
2018-02-13T04:32:56.002Z,98600.63
2018-02-13T04:35:23.583Z,98602.28
2018-02-13T04:37:51.273Z,98606.95
2018-02-13T04:40:18.913Z,98605.63
2018-02-13T04:42:47.225Z,98610.10
2018-02-13T04:45:14.803Z,98611.38
2018-02-13T04:47:42.437Z,98611.59
2018-02-13T04:50:10.080Z,98609.99
2018-02-13T04:52:37.667Z,98613.73
2018-02-13T04:55:05.422Z,98616.87
2018-02-13T04:57:33.008Z,98609.05
2018-02-13T05:00:01.272Z,98615.81
2018-02-13T05:02:28.944Z,98613.31
2018-02-13T05:04:56.510Z,98608.41
2018-02-13T05:07:24.093Z,98615.86
2018-02-13T05:09:52.559Z,98618.64
2018-02-13T05:12:20.133Z,98624.22
2018-02-13T05:14:47.849Z,98623.36
2018-02-13T05:17:16.213Z,98631.20
2018-02-13T05:19:43.878Z,98633.66
2018-02-13T05:22:11.438Z,98624.27
2018-02-13T05:24:39.135Z,98628.27
2018-02-13T05:27:06.773Z,98627.35
2018-02-13T05:29:34.413Z,98629.70
2018-02-13T05:32:02.252Z,98631.50
2018-02-13T05:34:29.822Z,98629.63
2018-02-13T05:36:57.406Z,98628.65
2018-02-13T05:39:25.027Z,98634.84
2018-02-13T05:41:52.801Z,98644.06
2018-02-13T05:44:20.406Z,98637.98
2018-02-13T05:46:48.036Z,98640.69
2018-02-13T05:49:15.634Z,98629.16
2018-02-13T05:51:43.209Z,98626.86
2018-02-13T05:54:10.852Z,98621.68
2018-02-13T05:56:38.440Z,98617.35
2018-02-13T05:59:06.006Z,98621.22
2018-02-13T06:01:33.624Z,98620.41
2018-02-13T06:04:04.088Z,98625.05
2018-02-13T06:06:31.664Z,98628.89
2018-02-13T06:08:59.393Z,98633.73
2018-02-13T06:11:26.968Z,98633.14
2018-02-13T06:13:54.625Z,98627.75
2018-02-13T06:16:22.310Z,98631.18
2018-02-13T06:18:50.437Z,98637.52
2018-02-13T06:21:18.065Z,98639.58
2018-02-13T06:23:45.687Z,98647.56
2018-02-13T06:26:13.277Z,98650.56
2018-02-13T06:28:40.844Z,98657.84
2018-02-13T06:31:08.526Z,98663.77
2018-02-13T06:33:36.131Z,98658.70
2018-02-13T06:36:03.697Z,98664.31
2018-02-13T06:38:31.304Z,98660.59
2018-02-13T06:40:58.884Z,98658.35
2018-02-13T06:43:26.472Z,98666.30
2018-02-13T06:45:54.085Z,98672.03
2018-02-13T06:48:21.666Z,98675.36
2018-02-13T06:50:49.314Z,98682.52
2018-02-13T06:53:16.950Z,98686.80
2018-02-13T06:55:44.610Z,98687.67
2018-02-13T06:58:12.243Z,98698.92
2018-02-13T07:00:39.926Z,98696.85
2018-02-13T07:03:08.356Z,98693.91
2018-02-13T07:05:35.934Z,98695.45
2018-02-13T07:08:03.555Z,98693.81
2018-02-13T07:10:31.140Z,98682.94
2018-02-13T07:12:58.719Z,98675.53
2018-02-13T07:15:26.369Z,98671.62
2018-02-13T07:17:54.046Z,98680.62
2018-02-13T07:20:21.659Z,98676.91
2018-02-13T07:22:49.290Z,98681.36
2018-02-13T07:25:17.030Z,98689.37
2018-02-13T07:27:44.652Z,98685.58
2018-02-13T07:30:12.292Z,98682.06
2018-02-13T07:32:39.918Z,98683.52
2018-02-13T07:35:07.531Z,98679.27
2018-02-13T07:43:51.609Z,98683.98
2018-02-13T07:46:19.231Z,98692.83
2018-02-13T07:48:47.423Z,98687.73
2018-02-13T07:51:15.095Z,98689.73
2018-02-13T07:53:42.673Z,98681.37
2018-02-13T07:56:10.270Z,98684.80
2018-02-13T07:58:38.292Z,98678.33
2018-02-13T08:01:05.926Z,98664.27
2018-02-13T08:03:33.531Z,98668.63
2018-02-13T08:06:01.237Z,98668.09
2018-02-13T08:08:28.805Z,98673.94
2018-02-13T08:10:56.396Z,98674.38
2018-02-13T08:13:24.095Z,98677.33
2018-02-13T08:15:51.681Z,98678.88
2018-02-13T08:18:19.386Z,98679.89
2018-02-13T08:20:47.006Z,98681.19
2018-02-13T08:23:14.575Z,98685.00
2018-02-13T08:25:42.201Z,98693.69
2018-02-13T08:28:09.842Z,98698.72
2018-02-13T08:30:37.428Z,98716.52
2018-02-13T08:33:04.992Z,98718.97
2018-02-13T08:35:32.688Z,98722.13
2018-02-13T08:38:00.281Z,98720.30
2018-02-13T08:40:27.893Z,98716.73
2018-02-13T08:42:55.507Z,98712.47
2018-02-13T08:45:23.085Z,98717.12
2018-02-13T08:47:50.651Z,98716.34
2018-02-13T08:50:18.277Z,98715.50
2018-02-13T08:52:45.857Z,98714.08
2018-02-13T08:55:13.448Z,98717.60
2018-02-13T08:57:41.105Z,98727.66
2018-02-13T09:00:08.746Z,98729.55
2018-02-13T09:02:36.318Z,98724.06
2018-02-13T09:05:03.965Z,98727.92
2018-02-13T09:07:32.325Z,98735.58
2018-02-13T09:09:59.972Z,98734.69
2018-02-13T09:12:27.603Z,98743.14
2018-02-13T09:14:55.180Z,98735.53
2018-02-13T09:17:22.745Z,98723.81
2018-02-13T09:19:50.457Z,98720.87
2018-02-13T09:22:18.037Z,98714.86
2018-02-13T09:24:45.633Z,98718.02
2018-02-13T09:27:13.279Z,98711.70
2018-02-13T09:29:40.871Z,98711.77
2018-02-13T09:32:08.454Z,98695.42
2018-02-13T09:34:36.095Z,98699.95
2018-02-13T09:37:03.674Z,98689.16
2018-02-13T09:39:31.273Z,98690.23
2018-02-13T09:41:58.955Z,98692.50
2018-02-13T09:44:26.602Z,98684.01
2018-02-13T09:46:54.236Z,98672.75
2018-02-13T09:49:21.893Z,98671.77
2018-02-13T09:51:49.481Z,98668.97
2018-02-13T09:54:17.125Z,98664.36
2018-02-13T09:56:44.774Z,98665.39
2018-02-13T09:59:12.341Z,98657.72
2018-02-13T10:01:39.923Z,98659.41
2018-02-13T10:04:07.541Z,98654.84
2018-02-13T10:06:35.111Z,98662.78
2018-02-13T10:09:02.767Z,98659.71
2018-02-13T10:11:30.477Z,98663.45
2018-02-13T10:13:58.081Z,98649.86
2018-02-13T10:16:25.683Z,98645.56
2018-02-13T10:18:53.288Z,98641.17
2018-02-13T10:21:21.052Z,98633.97
2018-02-13T10:23:48.636Z,98632.58
2018-02-13T10:26:16.269Z,98629.05
2018-02-13T10:28:43.921Z,98626.73
2018-02-13T10:31:11.558Z,98625.69
2018-02-13T10:33:39.232Z,98615.38
2018-02-13T10:36:06.817Z,98619.67
2018-02-13T10:38:34.480Z,98617.06
2018-02-13T10:41:02.200Z,98612.18
2018-02-13T10:43:29.842Z,98611.79
2018-02-13T10:45:57.457Z,98604.08
2018-02-13T10:48:25.137Z,98595.06
2018-02-13T10:50:52.752Z,98591.25
2018-02-13T10:53:20.345Z,98588.02
2018-02-13T10:58:43.752Z,98599.77
2018-02-13T11:01:16.891Z,98590.99
2018-02-13T11:03:44.497Z,98580.32
2018-02-13T11:06:12.061Z,98569.42
2018-02-13T11:08:40.349Z,98560.77
2018-02-13T11:11:07.946Z,98568.37
2018-02-13T11:13:35.594Z,98566.31
2018-02-13T11:16:03.235Z,98558.69
2018-02-13T11:18:30.826Z,98555.40
2018-02-13T11:20:58.414Z,98551.17
2018-02-13T11:23:26.165Z,98552.66
2018-02-13T11:25:53.751Z,98553.58
2018-02-13T11:28:22.377Z,98558.59
2018-02-13T11:30:50.019Z,98544.12
2018-02-13T11:33:17.614Z,98541.90
2018-02-13T11:35:46.037Z,98545.13
2018-02-13T11:38:13.765Z,98550.27
2018-02-13T11:40:41.371Z,98547.13
2018-02-13T11:43:08.968Z,98540.16
2018-02-13T11:48:16.120Z,98528.99
2018-02-13T11:50:43.714Z,98524.09
2018-02-13T11:53:11.273Z,98518.06
2018-02-13T11:55:38.915Z,98526.84
2018-02-13T11:58:06.498Z,98527.27
2018-02-13T12:00:34.078Z,98522.13
2018-02-13T12:03:01.727Z,98524.39
2018-02-13T12:05:29.335Z,98516.42
2018-02-13T12:07:56.939Z,98516.09
2018-02-13T12:10:24.655Z,98520.64
2018-02-13T12:12:52.233Z,98525.86
2018-02-13T12:15:19.818Z,98515.32
2018-02-13T12:17:47.479Z,98510.52
2018-02-13T12:20:15.113Z,98507.86
2018-02-13T12:22:42.762Z,98508.94
2018-02-13T12:25:10.484Z,98503.39
2018-02-13T12:27:38.049Z,98503.30
2018-02-13T12:30:05.742Z,98499.95
2018-02-13T12:32:33.386Z,98500.83
2018-02-13T12:35:00.970Z,98496.41
2018-02-13T12:37:28.661Z,98496.38
2018-02-13T12:39:56.405Z,98498.73
2018-02-13T12:42:24.293Z,98488.39
2018-02-13T12:44:52.991Z,98490.27
2018-02-13T12:47:20.929Z,98484.66
2018-02-13T12:49:48.510Z,98484.40
2018-02-13T12:52:16.180Z,98481.38
2018-02-13T12:54:43.816Z,98480.03
2018-02-13T12:57:11.404Z,98475.88
2018-02-13T12:59:39.036Z,98468.50
2018-02-13T13:02:07.111Z,98465.03
2018-02-13T13:04:34.703Z,98464.58
2018-02-13T13:07:02.278Z,98468.72
2018-02-13T13:09:30.873Z,98474.88
2018-02-13T13:11:58.444Z,98468.69
2018-02-13T13:14:26.072Z,98470.59
2018-02-13T13:16:53.758Z,98457.91
2018-02-13T13:19:21.336Z,98458.45
2018-02-13T13:21:48.911Z,98448.44
2018-02-13T13:24:16.550Z,98444.78
2018-02-13T13:26:44.230Z,98446.16
2018-02-13T13:29:11.891Z,98446.56
2018-02-13T13:31:39.534Z,98441.05
2018-02-13T13:34:07.205Z,98447.45
2018-02-13T13:36:34.836Z,98436.80
2018-02-13T13:39:02.614Z,98427.72
2018-02-13T13:41:30.214Z,98427.39
2018-02-13T13:43:57.805Z,98423.96
2018-02-13T13:46:25.430Z,98420.59
2018-02-13T13:48:52.997Z,98424.19
2018-02-13T13:51:20.600Z,98436.56
2018-02-13T13:53:48.225Z,98425.59
2018-02-13T13:56:15.845Z,98429.54
2018-02-13T13:58:46.100Z,98430.55
2018-02-13T14:01:13.738Z,98431.45
2018-02-13T14:03:42.289Z,98418.92
2018-02-13T14:06:10.447Z,98426.93
2018-02-13T14:08:38.101Z,98425.94
2018-02-13T14:11:06.409Z,98422.08
2018-02-13T14:13:34.026Z,98429.73
2018-02-13T14:16:01.673Z,98435.39
2018-02-13T14:18:29.325Z,98430.23
2018-02-13T14:21:00.280Z,98426.38
2018-02-13T14:23:27.935Z,98423.37
2018-02-13T14:25:55.513Z,98423.95
2018-02-13T14:28:23.362Z,98416.88
2018-02-13T14:30:50.980Z,98410.52
2018-02-13T14:33:18.634Z,98410.73
2018-02-13T14:35:46.234Z,98408.81
2018-02-13T14:38:13.945Z,98406.13
2018-02-13T14:40:41.620Z,98407.33
2018-02-13T14:43:09.210Z,98406.76
2018-02-13T14:45:36.857Z,98404.20
2018-02-13T14:48:04.452Z,98394.70
2018-02-13T14:50:32.052Z,98396.34
2018-02-13T14:52:59.782Z,98399.00
2018-02-13T14:55:27.424Z,98394.03
2018-02-13T14:57:55.024Z,98396.19
2018-02-13T15:00:22.642Z,98393.05
2018-02-13T15:02:50.208Z,98386.77
2018-02-13T15:05:17.841Z,98385.69
2018-02-13T15:07:45.514Z,98388.27
2018-02-13T15:10:13.116Z,98385.61
2018-02-13T15:12:40.724Z,98385.55
2018-02-13T15:15:18.305Z,98384.77
2018-02-13T15:18:01.478Z,98384.17
2018-02-13T15:20:29.120Z,98382.23
2018-02-13T15:22:56.754Z,98375.88
2018-02-13T15:25:24.346Z,98373.67
2018-02-13T15:27:52.000Z,98372.68
2018-02-13T15:30:19.677Z,98369.72
2018-02-13T15:32:47.375Z,98363.34
2018-02-13T15:35:17.799Z,98358.62
2018-02-13T15:37:46.251Z,98358.84
2018-02-13T15:40:14.254Z,98352.09
2018-02-13T15:42:41.886Z,98357.11
2018-02-13T15:45:09.522Z,98357.36
2018-02-13T15:47:37.576Z,98360.88
2018-02-13T15:50:05.495Z,98358.42
2018-02-13T15:52:33.956Z,98357.92
2018-02-13T15:55:01.537Z,98359.13
2018-02-13T15:57:29.177Z,98353.28
2018-02-13T15:59:56.809Z,98358.78
2018-02-13T16:02:24.475Z,98360.87
2018-02-13T16:04:52.116Z,98359.03
2018-02-13T16:07:19.705Z,98367.61
2018-02-13T16:09:47.335Z,98362.03
2018-02-13T16:12:14.973Z,98362.03
2018-02-13T16:14:42.602Z,98360.70
2018-02-13T16:17:10.193Z,98357.52
2018-02-13T16:19:37.831Z,98356.78
2018-02-13T16:22:05.447Z,98360.30
2018-02-13T16:24:33.049Z,98359.75
2018-02-13T16:27:00.713Z,98361.72
2018-02-13T16:29:28.340Z,98352.14
2018-02-13T16:31:56.060Z,98363.49
2018-02-13T16:34:23.703Z,98358.31
2018-02-13T16:36:51.345Z,98362.16
2018-02-13T16:39:18.974Z,98359.63
2018-02-13T16:41:46.663Z,98352.58
2018-02-13T16:44:14.236Z,98355.67
2018-02-13T16:46:41.816Z,98355.98
2018-02-13T16:49:09.542Z,98351.41
2018-02-13T16:51:37.139Z,98352.22
2018-02-13T16:54:04.723Z,98353.14
2018-02-13T16:56:32.356Z,98348.23
2018-02-13T16:58:59.975Z,98345.06
2018-02-13T17:01:27.569Z,98347.20
2018-02-13T17:03:55.269Z,98345.09
2018-02-13T17:06:22.901Z,98349.81
2018-02-13T17:08:50.538Z,98346.50
2018-02-13T17:11:18.165Z,98345.09
2018-02-13T17:13:45.794Z,98345.76
2018-02-13T17:16:13.360Z,98338.44
2018-02-13T17:18:41.012Z,98334.48
2018-02-13T17:21:08.720Z,98337.02
2018-02-13T17:23:36.272Z,98333.19
2018-02-13T17:26:03.893Z,98327.16
2018-02-13T17:28:31.533Z,98319.10
2018-02-13T17:30:59.166Z,98327.16
2018-02-13T17:33:26.914Z,98320.36
2018-02-13T17:35:54.512Z,98314.02
2018-02-13T17:38:22.071Z,98311.88
2018-02-13T17:40:50.475Z,98318.33
2018-02-13T17:43:18.142Z,98313.08
2018-02-13T17:45:45.710Z,98311.53
2018-02-13T17:48:13.327Z,98309.37
2018-02-13T17:50:41.505Z,98306.10
2018-02-13T17:53:09.732Z,98301.20
2018-02-13T17:55:38.188Z,98299.45
2018-02-13T17:58:05.825Z,98290.28
2018-02-13T18:00:33.451Z,98293.98
2018-02-13T18:03:01.149Z,98286.45
2018-02-13T18:05:28.800Z,98290.81
2018-02-13T18:07:56.437Z,98290.85
2018-02-13T18:10:24.046Z,98284.41
2018-02-13T18:12:52.117Z,98281.20
2018-02-13T18:15:19.709Z,98281.59
2018-02-13T18:17:47.366Z,98279.08
2018-02-13T18:20:14.938Z,98283.63
2018-02-13T18:22:42.749Z,98273.39
2018-02-13T18:25:10.433Z,98273.11
2018-02-13T18:27:38.052Z,98270.43
2018-02-13T18:30:05.666Z,98271.63
2018-02-13T18:32:33.292Z,98276.91
2018-02-13T18:35:00.950Z,98269.02
2018-02-13T18:37:28.525Z,98264.66
2018-02-13T18:39:56.146Z,98276.13
2018-02-13T18:42:23.720Z,98269.38
2018-02-13T18:44:51.300Z,98268.88
2018-02-13T18:47:18.942Z,98267.37
2018-02-13T18:49:46.512Z,98277.22
2018-02-13T18:54:41.678Z,98267.22
2018-02-13T18:57:09.240Z,98265.53
2018-02-13T18:59:36.816Z,98263.17
2018-02-13T19:02:04.433Z,98263.28
2018-02-13T19:04:32.081Z,98270.92
2018-02-13T19:06:59.646Z,98268.63
2018-02-13T19:09:27.269Z,98260.14
2018-02-13T19:11:54.892Z,98262.36
2018-02-13T19:14:22.492Z,98266.75
2018-02-13T19:19:17.677Z,98263.89
2018-02-13T19:21:45.265Z,98262.63
2018-02-13T19:24:12.899Z,98258.96
2018-02-13T19:26:40.561Z,98260.09
2018-02-13T19:29:08.135Z,98253.50
2018-02-13T19:31:36.013Z,98261.56
2018-02-13T19:34:03.618Z,98252.41
2018-02-13T19:36:31.449Z,98244.23
2018-02-13T19:38:59.086Z,98237.58
2018-02-13T19:41:26.650Z,98232.37
2018-02-13T19:43:54.607Z,98232.27
2018-02-13T19:46:22.214Z,98223.22
2018-02-13T19:48:49.793Z,98228.75
2018-02-13T19:51:17.433Z,98221.88
2018-02-13T19:53:45.069Z,98213.08
2018-02-13T19:56:12.668Z,98219.13
2018-02-13T19:58:40.244Z,98213.08
2018-02-13T20:01:07.870Z,98216.05
2018-02-13T20:03:35.460Z,98221.86
2018-02-13T20:06:03.059Z,98216.97
2018-02-13T20:08:30.920Z,98216.34
2018-02-13T20:10:58.510Z,98197.18
2018-02-13T20:13:26.103Z,98197.39
2018-02-13T20:15:53.748Z,98191.66
2018-02-13T20:18:21.316Z,98176.02
2018-02-13T20:20:48.876Z,98171.44
2018-02-13T20:23:16.495Z,98172.92
2018-02-13T20:25:44.135Z,98176.09
2018-02-13T20:28:11.769Z,98171.73
2018-02-13T20:30:39.451Z,98171.10
2018-02-13T20:33:07.047Z,98163.17
2018-02-13T20:35:34.686Z,98175.44
2018-02-13T20:38:02.433Z,98166.92
2018-02-13T20:40:30.034Z,98158.41
2018-02-13T20:42:57.664Z,98163.83
2018-02-13T20:45:25.350Z,98149.42
2018-02-13T20:47:52.966Z,98152.31
2018-02-13T20:50:20.537Z,98162.27
2018-02-13T20:52:48.239Z,98157.77
2018-02-13T20:55:15.937Z,98156.42
2018-02-13T20:57:43.593Z,98141.86
2018-02-13T21:00:11.319Z,98138.09
2018-02-13T21:02:38.937Z,98137.56
2018-02-13T21:05:06.510Z,98131.92
2018-02-13T21:07:34.132Z,98136.52
2018-02-13T21:10:01.696Z,98136.33
2018-02-13T21:12:29.261Z,98119.19
2018-02-13T21:14:56.894Z,98121.44
2018-02-13T21:17:24.472Z,98137.34
2018-02-13T21:19:52.083Z,98124.14
2018-02-13T21:22:20.013Z,98120.41
2018-02-13T21:24:47.609Z,98123.61
2018-02-13T21:27:15.193Z,98112.63
2018-02-13T21:29:42.812Z,98111.70
2018-02-13T21:32:10.394Z,98116.98
2018-02-13T21:34:38.043Z,98118.84
2018-02-13T21:37:05.762Z,98104.52
2018-02-13T21:39:33.417Z,98108.30
2018-02-13T21:42:01.008Z,98102.24
2018-02-13T21:44:28.653Z,98105.81
2018-02-13T21:46:56.236Z,98099.73
2018-02-13T21:49:24.018Z,98100.68
2018-02-13T21:51:51.699Z,98094.91
2018-02-13T21:54:19.340Z,98090.89
2018-02-13T21:56:47.005Z,98091.39
2018-02-13T21:59:14.695Z,98090.38
2018-02-13T22:01:42.938Z,98075.02
2018-02-13T22:04:10.516Z,98075.29
2018-02-13T22:06:38.143Z,98067.73
2018-02-13T22:09:05.770Z,98057.52
2018-02-13T22:11:33.414Z,98061.09
2018-02-13T22:14:01.044Z,98059.27
2018-02-13T22:16:28.640Z,98046.03
2018-02-13T22:18:56.195Z,98047.09
2018-02-13T22:21:24.323Z,98053.42
2018-02-13T22:23:51.897Z,98048.21
2018-02-13T22:26:19.469Z,98047.72
2018-02-13T22:28:47.105Z,98060.03
2018-02-13T22:31:14.979Z,98058.61
2018-02-13T22:33:43.731Z,98048.41
2018-02-13T22:36:11.384Z,98052.01
2018-02-13T22:38:39.051Z,98046.68
2018-02-13T22:41:06.791Z,98046.03
2018-02-13T22:43:34.515Z,98048.85
2018-02-13T22:46:02.108Z,98039.84
2018-02-13T22:48:29.673Z,98040.80
2018-02-13T22:50:57.337Z,98034.88
2018-02-13T22:53:24.978Z,98041.17
2018-02-13T22:55:52.638Z,98028.22
2018-02-13T22:58:20.264Z,98031.73
2018-02-13T23:00:48.565Z,98026.88
2018-02-13T23:03:16.473Z,98024.06
2018-02-13T23:05:48.023Z,98024.58
2018-02-13T23:08:15.653Z,98017.55
2018-02-13T23:10:43.237Z,98017.03
2018-02-13T23:13:10.946Z,98010.22
2018-02-13T23:15:38.589Z,98010.56
2018-02-13T23:18:06.270Z,98004.96
2018-02-13T23:20:33.977Z,97993.59
2018-02-13T23:23:01.556Z,97996.04
2018-02-13T23:25:29.130Z,97999.66
2018-02-13T23:27:56.826Z,97994.65
2018-02-13T23:30:24.396Z,97998.33
2018-02-13T23:32:51.986Z,97991.16
2018-02-13T23:35:19.639Z,97980.97
2018-02-13T23:37:47.297Z,97979.47
2018-02-13T23:40:14.884Z,97970.18
2018-02-13T23:42:42.919Z,97974.77
2018-02-13T23:45:10.520Z,97978.91
2018-02-13T23:47:38.109Z,97971.08
2018-02-13T23:50:05.747Z,97960.96
2018-02-13T23:52:33.357Z,97960.13
2018-02-13T23:55:00.942Z,97958.58
2018-02-13T23:57:28.583Z,97967.61
2018-02-13T23:59:56.166Z,97962.58
